Details From UDYZ - Zvartnots
To TNCM - St Maarten - Princess Juliana Intl
Flight Number -
Tags Decoded
Created
Modified
Stats Distance 5,486 nm / 10,160 km
Max Altitude 0 ft / 0 m
Waypoints 12
Social Downloads 1
Likes 0
Share VATSIM

Download

Looking for another format? Having issues loading an existing format? Contact us
Advertisement - Login to hide

Notes

Decoded

Route

UDYZ ADINA TIMEX DAK AMBUS LUSIL LSE17 CY404 PJM09 PJM07 PJM02 TNCM

ID Type Via Altitude Latitude Longitude Leg Dist Tot Dist Heading (true) Name
O UDYZ APT - 0 ft / 0 m 40.14715˚ 44.37329˚ - 0 nm - -
ADINA FIX - 0 ft / 0 m 43.80300˚ 30.50343˚ 656 nm 656 nm 294° / 285° -
TIMEX FIX - 0 ft / 0 m 44.67307˚ 25.95589˚ 202 nm 858 nm 287° / 283° -
DAK NDB - 0 ft / 0 m 45.42083˚ 20.42750˚ 238 nm 1097 nm 283° / 279° -
AMBUS FIX - 0 ft / 0 m 45.88870˚ 14.85496˚ 235 nm 1332 nm 279° / 275° -
LUSIL FIX - 0 ft / 0 m 46.04306˚ 10.11667˚ 197 nm 1530 nm 274° / 271° -
LSE17 FIX - 0 ft / 0 m 45.99445˚ 5.30550˚ 200 nm 1731 nm 271° / 267° -
CY404 FIX - 0 ft / 0 m 45.66444˚ -0.72953˚ 253 nm 1984 nm 268° / 263° -
PJM09 FIX - 0 ft / 0 m 18.02230˚ -63.27493˚ 3492 nm 5477 nm 263° / 227° -
PJM07 FIX - 0 ft / 0 m 18.02582˚ -63.24012˚ 1 nm 5479 nm 84° / 84° -
PJM02 FIX - 0 ft / 0 m 18.03461˚ -63.15309˚ 4 nm 5484 nm 84° / 84° -
O TNCM APT - 0 ft / 0 m 18.03937˚ -63.11961˚ 1 nm 5486 nm 81° / 82° -

Altitude Profile

Advertisement - Login to hide

Weather


0- 5 10 15 20 25 30 35+ Temperature / ° C

Clouds and Precipitation
Forecast for 2017-12-14 18:00 UTC. Updated 30 minutes ago

Ground ~20,000 ft ~40,000 ft Winds

UDYZ

Details ICAO UDYZ (EVN)
Name ZVARTNOTS
Region Armenia
Timezone Asia/Yerevan (UTC+4.0)
Stats Elevation 2,838 ft / 865 m (AMSL)
Location 40.147271° 44.395880°
Runways 1
Magnetic Variation 6.201° E

METAR

UDYZ 141530Z 35002KT 3500 BR NSC M01/M04 Q1021 R09/000070 NOSIG

Decode

TAF

TAF UDYZ 141102Z 1412/1512 VRB04KT 6000 NSC TEMPO 1415/1418 2300 BR TEMPO 1418/1506 1000 BR

Decode

Departure Runways

ID Width Length Bearing (true) Bearing (mag) Surface Threshold Offset Overrun Length
09 184 ft / 56 m 12,601 ft / 3,841 m 89.59° 83.39° Asphalt 0 ft / 0 m 0 ft / 0 m
27 184 ft / 56 m 12,601 ft / 3,841 m 269.62° 263.42° Asphalt 0 ft / 0 m 0 ft / 0 m

TNCM

Details ICAO TNCM (SXM)
Name St Maarten - Princess Juliana Intl
Region Caribbean Netherlands, Aruba, Curaçao, Sint Maarten
Timezone Unknown (UTC+0.0)
Stats Elevation 12 ft / 4 m (AMSL)
Location 18.040889° -63.108974°
Runways 1
Magnetic Variation 14.325° W

METAR

TNCM 141500Z 12008KT 090V160 9999 FEW024 29/21 Q1018 A3007 NOSIG

Decode

TAF

TAF TNCM 141140Z 1412/1512 09008KT P6SM SCT020

Decode

Destination Runways

ID Width Length Bearing (true) Bearing (mag) Surface Threshold Offset Overrun Length
10 148 ft / 45 m 7,464 ft / 2,275 m 81.43° 95.76° Asphalt 0 ft / 0 m 151 ft / 46 m
28 148 ft / 45 m 7,464 ft / 2,275 m 261.44° 275.77° Asphalt 397 ft / 121 m 0 ft / 0 m

Popular Alternatives